Terminal Aerodrome Forecast
Issued by NWS Portland, ME

Home | Current Version | Previous Version | Text Only | Print | Product List | Glossary On
Versions: 1 2 3 4 5 6 7 8 9 10 11 12 13 14 15 16 17 18 19 20 21 22 23
000
FTUS41 KGYX 062320
TAFCON
TAF
KCON 062320Z 0700/0724 14008KT P6SM OVC040
     FM070200 06002KT P6SM OVC015
     FM070800 02002KT P6SM OVC007
     FM071400 05004KT P6SM OVC015
     FM071800 05005KT P6SM OVC007
     FM071900 07003KT P6SM OVC015=

USA.gov is the U.S. government's official web portal to all federal, state and local government web resources and services.